KABE

Lehigh Valley International Airport

Allentown, Pennsylvania, USA
METAR KABE 222051Z VRB03KT 10SM CLR 19/M09 A3032 RMK AO2 SLP268 T01941089 56015
Observed Flight Rules
Apr-22 @ 20:51 UTC (an hour ago) Visual Flight Rules
Wind Visibility Clouds
Variable at 3 knots 10 miles
  • Clear skies
Temperatures Readings
Current 19°C / 66°F
Dewpoint -9°C / 16°F
Humidity 14%
Altimeter 30.32" Hg
Pressure 1026.8 hPa
Elevation 114
METAR KABE 222051Z VRB03KT 10SM CLR 19/M09 A3032 RMK AO2 SLP268 T01941089 56015
Observed Flight Rules
Apr-22 @ 20:51 UTC
(an hour ago)
VFR
Wind Visibility
Variable at 3 knots 10 miles
Clouds
  • Clear skies
Temperature Dewpoint
19°C / 66°F -9°C / 16°F
Humidity Altimeter Pressure
14% 30.32" Hg 1026.8 hPa